^^
Saratoga-Weather Station Historical Data
Daily Summary for April 19, 2020 Units:  Metric    English   Both
Daily Weekly Monthly Yearly Custom
  High: Low: Average:
Temperature: 12.9 °C 3.7 °C 8.3 °C
Dew Point: 10.8 °C 3.4 °C 7 °C
Humidity: 99% 76% 92%
Wind Speed: 9.7km/h 0km/h 1.1km/h
Wind Gust: 12.9km/h - -
Wind- - ESE
Pressure: 1018.3 hPa 1014.9 hPa -
Precipitation: 0.2 mm    
Historical Graphs
 
 
Tabular Data for April 19, 2020
Time Temperature Dew Point Pressure Wind Wind Speed Wind Gust Humidity Rainfall Rate (Hourly) solar
00:03 4.8 °C 4.5 °C 1018.3 hPa Calm     98% 0.0 mm 0 W/m2
00:08 4.8 °C 4.5 °C 1018.3 hPa Calm     98% 0.0 mm 0 W/m2
00:13 4.7 °C 4.4 °C 1018.0 hPa Calm     98% 0.0 mm 0 W/m2
00:18 4.6 °C 4.3 °C 1018.0 hPa Calm     98% 0.0 mm 0 W/m2
00:23 4.4 °C 4.1 °C 1018.0 hPa Calm     98% 0.0 mm 0 W/m2
00:28 4.3 °C 4 °C 1018.0 hPa Calm     98% 0.0 mm 0 W/m2
00:33 4.2 °C 3.9 °C 1018.0 hPa Calm     98% 0.0 mm 0 W/m2
00:38 4.1 °C 3.8 °C 1018.0 hPa Calm     98% 0.0 mm 0 W/m2
00:43 4 °C 3.7 °C 1018.0 hPa Calm     98% 0.0 mm 0 W/m2
00:48 3.9 °C 3.6 °C 1018.0 hPa Calm     98% 0.0 mm 0 W/m2
00:53 3.9 °C 3.6 °C 1018.0 hPa Calm     98% 0.0 mm 0 W/m2
00:58 3.9 °C 3.6 °C 1018.0 hPa Calm     98% 0.0 mm 0 W/m2
01:03 3.9 °C 3.6 °C 1018.0 hPa Calm     98% 0.0 mm 0 W/m2
01:08 3.9 °C 3.6 °C 1017.6 hPa Calm     98% 0.0 mm 0 W/m2
01:13 3.9 °C 3.6 °C 1017.6 hPa Calm     98% 0.0 mm 0 W/m2
01:18 3.9 °C 3.6 °C 1017.6 hPa Calm     98% 0.0 mm 0 W/m2
01:23 3.9 °C 3.6 °C 1017.6 hPa Calm     98% 0.0 mm 0 W/m2
01:28 3.9 °C 3.6 °C 1017.6 hPa Calm     98% 0.0 mm 0 W/m2
01:33 3.9 °C 3.6 °C 1017.3 hPa Calm     98% 0.0 mm 0 W/m2
01:38 3.9 °C 3.6 °C 1017.3 hPa Calm     98% 0.0 mm 0 W/m2
01:43 3.9 °C 3.6 °C 1017.3 hPa Calm     98% 0.0 mm 0 W/m2
01:48 3.9 °C 3.6 °C 1017.3 hPa Calm     98% 0.0 mm 0 W/m2
01:53 3.8 °C 3.5 °C 1017.3 hPa Calm     98% 0.0 mm 0 W/m2
01:58 3.9 °C 3.6 °C 1017.3 hPa Calm     98% 0.0 mm 0 W/m2
02:04 4 °C 3.7 °C 1016.9 hPa Calm     98% 0.0 mm 0 W/m2
02:09 4 °C 3.7 °C 1016.9 hPa Calm     98% 0.0 mm 0 W/m2
02:14 4.1 °C 3.8 °C 1016.9 hPa Calm     98% 0.0 mm 0 W/m2
02:19 4.1 °C 3.8 °C 1016.9 hPa Calm     98% 0.0 mm 0 W/m2
02:35 3.9 °C 3.6 °C 1016.9 hPa Calm     98% 0.0 mm 0 W/m2
02:40 3.8 °C 3.5 °C 1016.9 hPa Calm     98% 0.0 mm 0 W/m2
02:45 3.8 °C 3.5 °C 1016.9 hPa Calm     98% 0.0 mm 0 W/m2
03:05 3.7 °C 3.4 °C 1016.6 hPa Calm     98% 0.0 mm 0 W/m2
03:10 3.9 °C 3.6 °C 1016.6 hPa Calm     98% 0.0 mm 0 W/m2
03:15 4.1 °C 3.8 °C 1016.6 hPa Calm     98% 0.0 mm 0 W/m2
03:20 4.2 °C 3.9 °C 1016.6 hPa Calm     98% 0.0 mm 0 W/m2
03:25 4.2 °C 3.9 °C 1016.6 hPa Calm     98% 0.0 mm 0 W/m2
03:30 4.3 °C 4 °C 1016.3 hPa Calm     98% 0.0 mm 0 W/m2
03:35 4.3 °C 4 °C 1016.3 hPa Calm     98% 0.0 mm 0 W/m2
03:40 4.4 °C 4.1 °C 1016.3 hPa Calm     98% 0.0 mm 0 W/m2
03:45 4.4 °C 4.1 °C 1016.3 hPa Calm     98% 0.0 mm 0 W/m2
03:50 4.5 °C 4.2 °C 1016.3 hPa Calm     98% 0.0 mm 0 W/m2
03:55 4.5 °C 4.2 °C 1016.3 hPa Calm     98% 0.0 mm 0 W/m2
04:00 4.7 °C 4.4 °C 1016.3 hPa Calm     98% 0.0 mm 0 W/m2
04:05 4.7 °C 4.4 °C 1016.3 hPa Calm     98% 0.0 mm 0 W/m2
04:10 4.7 °C 4.4 °C 1016.3 hPa Calm     98% 0.0 mm 0 W/m2
04:15 4.8 °C 4.5 °C 1016.3 hPa Calm     98% 0.0 mm 0 W/m2
04:20 4.8 °C 4.5 °C 1016.3 hPa Calm     98% 0.0 mm 0 W/m2
04:25 4.8 °C 4.5 °C 1016.3 hPa Calm     98% 0.0 mm 0 W/m2
04:30 4.8 °C 4.5 °C 1016.3 hPa Calm     98% 0.0 mm 0 W/m2
04:35 4.9 °C 4.6 °C 1015.9 hPa Calm     98% 0.0 mm 0 W/m2
04:40 4.9 °C 4.6 °C 1016.3 hPa Calm     98% 0.0 mm 0 W/m2
04:45 5 °C 4.7 °C 1015.9 hPa Calm     98% 0.0 mm 0 W/m2
04:50 5 °C 4.7 °C 1015.9 hPa Calm     98% 0.0 mm 0 W/m2
04:55 5 °C 4.7 °C 1015.9 hPa Calm     98% 0.0 mm 0 W/m2
05:00 5 °C 4.7 °C 1015.9 hPa Calm     98% 0.0 mm 0 W/m2
05:05 4.9 °C 4.6 °C 1015.9 hPa Calm     98% 0.0 mm 0 W/m2
05:10 4.9 °C 4.6 °C 1015.6 hPa Calm     98% 0.0 mm 0 W/m2
05:15 4.9 °C 4.6 °C 1015.9 hPa Calm     98% 0.0 mm 0 W/m2
05:20 4.9 °C 4.6 °C 1015.9 hPa Calm     98% 0.0 mm 0 W/m2
05:25 5 °C 4.7 °C 1015.9 hPa Calm     98% 0.0 mm 0 W/m2
05:30 5.1 °C 4.8 °C 1015.9 hPa Calm     98% 0.0 mm 0 W/m2
05:35 5.1 °C 4.8 °C 1015.9 hPa Calm     98% 0.0 mm 0 W/m2
05:41 5.1 °C 4.8 °C 1015.9 hPa Calm     98% 0.0 mm 0 W/m2
05:46 5.1 °C 4.8 °C 1015.9 hPa Calm     98% 0.0 mm 0 W/m2
05:51 5.1 °C 4.8 °C 1015.9 hPa Calm     98% 0.0 mm 0 W/m2
05:56 5 °C 4.7 °C 1015.6 hPa Calm     98% 0.0 mm 0 W/m2
06:01 4.9 °C 4.6 °C 1015.6 hPa Calm     98% 0.0 mm 0 W/m2
06:06 4.8 °C 4.5 °C 1015.6 hPa Calm     98% 0.0 mm 0 W/m2
06:11 4.7 °C 4.4 °C 1015.6 hPa Calm     98% 0.0 mm 0 W/m2
06:16 4.7 °C 4.4 °C 1015.6 hPa Calm     98% 0.0 mm 0 W/m2
06:21 4.7 °C 4.4 °C 1015.6 hPa Calm     98% 0.0 mm 0 W/m2
06:26 4.7 °C 4.4 °C 1015.6 hPa Calm     98% 0.0 mm 0 W/m2
06:31 4.8 °C 4.5 °C 1015.6 hPa Calm     98% 0.0 mm 0 W/m2
06:36 4.8 °C 4.5 °C 1015.6 hPa Calm     98% 0.0 mm 0 W/m2
06:41 4.8 °C 4.5 °C 1015.6 hPa Calm     98% 0.0 mm 0 W/m2
06:46 4.8 °C 4.5 °C 1015.6 hPa Calm     98% 0.0 mm 0 W/m2
06:51 4.8 °C 4.5 °C 1015.6 hPa Calm     98% 0.0 mm 0 W/m2
06:56 4.7 °C 4.4 °C 1015.6 hPa Calm     98% 0.0 mm 0 W/m2
07:01 4.7 °C 4.4 °C 1015.6 hPa Calm     98% 0.0 mm 0 W/m2
07:06 4.8 °C 4.5 °C 1015.6 hPa Calm     98% 0.0 mm 0 W/m2
07:11 4.8 °C 4.5 °C 1015.6 hPa Calm     98% 0.0 mm 0 W/m2
07:16 4.8 °C 4.5 °C 1015.6 hPa Calm     98% 0.0 mm 0 W/m2
07:21 4.8 °C 4.5 °C 1015.6 hPa Calm     98% 0.0 mm 0 W/m2
07:26 4.8 °C 4.5 °C 1015.6 hPa Calm     98% 0.0 mm 0 W/m2
07:31 4.8 °C 4.5 °C 1015.6 hPa Calm     98% 0.0 mm 0 W/m2
07:36 4.7 °C 4.4 °C 1015.6 hPa Calm     98% 0.0 mm 0 W/m2
07:41 4.7 °C 4.4 °C 1015.6 hPa Calm     98% 0.0 mm 0 W/m2
07:46 4.8 °C 4.5 °C 1015.6 hPa Calm     98% 0.0 mm 0 W/m2
07:51 4.9 °C 4.6 °C 1015.6 hPa Calm     98% 0.0 mm 0 W/m2
07:56 4.9 °C 4.6 °C 1015.6 hPa Calm     98% 0.0 mm 0 W/m2
08:01 4.9 °C 4.6 °C 1015.6 hPa Calm     98% 0.0 mm 0 W/m2
08:06 4.9 °C 4.6 °C 1015.6 hPa West 1.4 km/h 1.6 km/h 98% 0.0 mm 0 W/m2
08:11 4.8 °C 4.5 °C 1015.6 hPa West 1.4 km/h 1.6 km/h 98% 0.0 mm 0 W/m2
08:16 4.8 °C 4.5 °C 1015.6 hPa ENE 1.4 km/h 6.4 km/h 98% 0.0 mm 0 W/m2
08:35 5.8 °C 5.5 °C 1015.9 hPa ENE 3.2 km/h 3.2 km/h 98% 0.0 mm 5 W/m2
08:40 5.8 °C 5.5 °C 1015.9 hPa Calm   3.2 km/h 98% 0.0 mm 7 W/m2
08:45 5.9 °C 5.6 °C 1015.9 hPa East 1.4 km/h 6.4 km/h 98% 0.0 mm 7 W/m2
09:02 6.2 °C 5.9 °C 1016.3 hPa ENE 4.7 km/h 6.4 km/h 98% 0.0 mm 12 W/m2
09:07 6.4 °C 6.1 °C 1016.3 hPa ENE 3.2 km/h 3.2 km/h 98% 0.0 mm 14 W/m2
09:13 6.2 °C 5.9 °C 1016.3 hPa ESE 1.4 km/h 3.2 km/h 98% 0.0 mm 14 W/m2
09:18 6.1 °C 5.8 °C 1016.3 hPa ENE 3.2 km/h 3.2 km/h 98% 0.0 mm 16 W/m2
09:38 5.8 °C 5.5 °C 1016.3 hPa Calm   3.2 km/h 98% 0.0 mm 30 W/m2
09:43 6.1 °C 5.8 °C 1016.3 hPa NE 3.2 km/h 4.8 km/h 98% 0.0 mm 46 W/m2
09:48 6.3 °C 6 °C 1016.3 hPa NE 3.2 km/h 3.2 km/h 98% 0.0 mm 53 W/m2
09:53 6.6 °C 6.3 °C 1016.3 hPa NE 1.4 km/h 3.2 km/h 98% 0.0 mm 51 W/m2
10:10 7.1 °C 6.8 °C 1016.3 hPa Calm   1.6 km/h 98% 0.0 mm 56 W/m2
10:15 7.2 °C 6.9 °C 1016.3 hPa East 3.2 km/h 3.2 km/h 98% 0.0 mm 51 W/m2
10:20 7.2 °C 6.9 °C 1016.3 hPa East 3.2 km/h 4.8 km/h 98% 0.0 mm 54 W/m2
10:25 7.3 °C 7 °C 1016.3 hPa Calm   1.6 km/h 98% 0.0 mm 51 W/m2
10:30 7.3 °C 7 °C 1016.3 hPa East 1.4 km/h 1.6 km/h 98% 0.0 mm 56 W/m2
10:35 7.3 °C 7 °C 1016.3 hPa Calm   1.6 km/h 98% 0.0 mm 47 W/m2
10:40 7.4 °C 7.1 °C 1016.3 hPa Calm   1.6 km/h 98% 0.0 mm 49 W/m2
10:45 7.4 °C 7.1 °C 1016.3 hPa Calm   3.2 km/h 98% 0.0 mm 53 W/m2
10:50 7.5 °C 7.2 °C 1016.3 hPa Calm   1.6 km/h 98% 0.0 mm 60 W/m2
10:55 7.6 °C 7.3 °C 1016.3 hPa NNE 1.4 km/h 3.2 km/h 98% 0.0 mm 77 W/m2
11:00 7.7 °C 7.4 °C 1016.3 hPa NE 3.2 km/h 3.2 km/h 98% 0.0 mm 76 W/m2
11:05 7.9 °C 7.6 °C 1016.3 hPa Calm   3.2 km/h 98% 0.0 mm 83 W/m2
11:10 8.2 °C 7.9 °C 1016.3 hPa NE 1.4 km/h 4.8 km/h 98% 0.0 mm 93 W/m2
11:15 8.4 °C 8.1 °C 1016.3 hPa Calm   1.6 km/h 98% 0.0 mm 98 W/m2
11:20 8.5 °C 8.4 °C 1016.3 hPa ENE 6.4 km/h 11.3 km/h 99% 0.0 mm 102 W/m2
11:25 8.7 °C 8.4 °C 1016.3 hPa ENE 4.7 km/h 6.4 km/h 98% 0.0 mm 104 W/m2
11:30 8.8 °C 8.7 °C 1015.9 hPa NE 4.7 km/h 8 km/h 99% 0.0 mm 100 W/m2
11:35 9 °C 8.7 °C 1015.9 hPa ENE 4.7 km/h 9.7 km/h 98% 0.0 mm 107 W/m2
11:40 9.2 °C 8.9 °C 1015.9 hPa North 6.4 km/h 6.4 km/h 98% 0.0 mm 107 W/m2
11:45 9.3 °C 9 °C 1015.9 hPa NNE 4.7 km/h 4.8 km/h 98% 0.0 mm 98 W/m2
11:50 9.6 °C 9.3 °C 1015.9 hPa North 1.4 km/h 6.4 km/h 98% 0.0 mm 109 W/m2
11:55 10 °C 9.7 °C 1015.6 hPa ENE 1.4 km/h 9.7 km/h 98% 0.0 mm 95 W/m2
12:00 10.3 °C 10 °C 1015.6 hPa NNW 1.4 km/h 4.8 km/h 98% 0.0 mm 95 W/m2
12:05 10.6 °C 10.3 °C 1015.6 hPa North 4.7 km/h 4.8 km/h 98% 0.0 mm 86 W/m2
12:10 10.9 °C 10.6 °C 1015.6 hPa ESE 1.4 km/h 12.9 km/h 98% 0.0 mm 86 W/m2
12:15 11.3 °C 10.8 °C 1015.6 hPa WNW 4.7 km/h 11.3 km/h 97% 0.0 mm 91 W/m2
12:20 11.7 °C 9.9 °C 1015.6 hPa ENE 4.7 km/h 4.8 km/h 89% 0.0 mm 77 W/m2
12:25 11.8 °C 9.5 °C 1015.2 hPa ENE 3.2 km/h 8 km/h 86% 0.0 mm 65 W/m2
12:30 11.9 °C 9.3 °C 1015.2 hPa NNW 6.4 km/h 6.4 km/h 84% 0.0 mm 70 W/m2
12:35 12 °C 9.2 °C 1015.2 hPa North 1.4 km/h 4.8 km/h 83% 0.0 mm 63 W/m2
12:40 12.1 °C 9.1 °C 1015.2 hPa NNW 4.7 km/h 4.8 km/h 82% 0.0 mm 63 W/m2
12:45 12.1 °C 8.9 °C 1015.2 hPa NW 3.2 km/h 6.4 km/h 81% 0.0 mm 72 W/m2
12:50 12.2 °C 9 °C 1015.2 hPa North 3.2 km/h 4.8 km/h 81% 0.0 mm 60 W/m2
13:10 12.2 °C 8.9 °C 1015.2 hPa SSE 4.7 km/h 4.8 km/h 80% 0.0 mm 104 W/m2
13:15 12.3 °C 8.9 °C 1014.9 hPa ENE 4.7 km/h 6.4 km/h 80% 0.0 mm 111 W/m2
13:20 12.3 °C 8.9 °C 1014.9 hPa East 1.4 km/h 6.4 km/h 80% 0.0 mm 113 W/m2
13:25 12.4 °C 9 °C 1014.9 hPa NNW 1.4 km/h 8 km/h 80% 0.0 mm 113 W/m2
13:30 12.4 °C 9 °C 1014.9 hPa ESE 3.2 km/h 4.8 km/h 80% 0.0 mm 118 W/m2
13:35 12.5 °C 9 °C 1014.9 hPa NE 3.2 km/h 6.4 km/h 79% 0.0 mm 123 W/m2
13:40 12.6 °C 9.1 °C 1014.9 hPa West 4.7 km/h 4.8 km/h 79% 0.0 mm 114 W/m2
13:45 12.7 °C 9 °C 1014.9 hPa South 1.4 km/h 9.7 km/h 78% 0.0 mm 104 W/m2
13:50 12.8 °C 9.1 °C 1014.9 hPa WSW 1.4 km/h 9.7 km/h 78% 0.0 mm 105 W/m2
13:55 12.8 °C 9.1 °C 1014.9 hPa ENE 3.2 km/h 4.8 km/h 78% 0.0 mm 104 W/m2
14:12 12.9 °C 9 °C 1014.9 hPa NNE 3.2 km/h 6.4 km/h 77% 0.0 mm 88 W/m2
14:17 12.9 °C 9 °C 1014.9 hPa North 3.2 km/h 3.2 km/h 77% 0.0 mm 76 W/m2
14:22 12.9 °C 9 °C 1014.9 hPa Calm   1.6 km/h 77% 0.0 mm 72 W/m2
14:27 12.9 °C 9 °C 1014.9 hPa NE 3.2 km/h 4.8 km/h 77% 0.0 mm 72 W/m2
14:32 12.9 °C 9 °C 1014.9 hPa NE 1.4 km/h 6.4 km/h 77% 0.0 mm 69 W/m2
14:37 12.9 °C 9 °C 1014.9 hPa Calm   3.2 km/h 77% 0.0 mm 63 W/m2
14:42 12.8 °C 9.1 °C 1014.9 hPa North 1.4 km/h 6.4 km/h 78% 0.0 mm 56 W/m2
14:47 12.8 °C 9.1 °C 1014.9 hPa ENE 1.4 km/h 4.8 km/h 78% 0.0 mm 51 W/m2
14:52 12.7 °C 9 °C 1014.9 hPa NE 1.4 km/h 6.4 km/h 78% 0.0 mm 47 W/m2
14:57 12.7 °C 9 °C 1014.9 hPa NE 3.2 km/h 4.8 km/h 78% 0.0 mm 39 W/m2
15:02 12.7 °C 9 °C 1014.9 hPa ENE 1.4 km/h 6.4 km/h 78% 0.0 mm 35 W/m2
15:07 12.7 °C 9 °C 1014.9 hPa Calm   3.2 km/h 78% 0.0 mm 40 W/m2
15:12 12.7 °C 9 °C 1014.9 hPa NNE 1.4 km/h 3.2 km/h 78% 0.0 mm 49 W/m2
15:17 12.7 °C 9 °C 1014.9 hPa ENE 4.7 km/h 4.8 km/h 78% 0.0 mm 47 W/m2
15:22 12.7 °C 9 °C 1014.9 hPa ENE 4.7 km/h 8 km/h 78% 0.0 mm 49 W/m2
15:27 12.7 °C 9 °C 1014.9 hPa North 4.7 km/h 4.8 km/h 78% 0.0 mm 42 W/m2
15:32 12.7 °C 9 °C 1014.9 hPa NNE 4.7 km/h 4.8 km/h 78% 0.0 mm 40 W/m2
15:37 12.8 °C 8.9 °C 1014.9 hPa East 6.4 km/h 9.7 km/h 77% 0.0 mm 33 W/m2
15:42 12.8 °C 8.9 °C 1014.9 hPa Calm   3.2 km/h 77% 0.0 mm 30 W/m2
15:47 12.8 °C 8.9 °C 1014.9 hPa ESE 3.2 km/h 8 km/h 77% 0.0 mm 28 W/m2
15:52 12.8 °C 8.9 °C 1014.9 hPa NW 3.2 km/h 4.8 km/h 77% 0.0 mm 26 W/m2
15:57 12.8 °C 8.9 °C 1014.9 hPa Calm   3.2 km/h 77% 0.0 mm 25 W/m2
16:02 12.9 °C 9 °C 1014.9 hPa North 1.4 km/h 3.2 km/h 77% 0.0 mm 23 W/m2
16:07 12.8 °C 8.7 °C 1014.9 hPa Calm   6.4 km/h 76% 0.0 mm 19 W/m2
16:12 12.8 °C 8.7 °C 1014.9 hPa NW 7.9 km/h 11.3 km/h 76% 0.0 mm 14 W/m2
16:17 12.9 °C 8.8 °C 1014.9 hPa NNW 9.7 km/h 12.9 km/h 76% 0.0 mm 12 W/m2
16:22 12.9 °C 8.8 °C 1015.2 hPa Calm   3.2 km/h 76% 0.0 mm 11 W/m2
16:27 12.8 °C 8.7 °C 1015.2 hPa ENE 4.7 km/h 12.9 km/h 76% 0.0 mm 5 W/m2
16:32 12.8 °C 8.7 °C 1015.2 hPa ENE 3.2 km/h 6.4 km/h 76% 0.0 mm 0 W/m2
16:37 12.8 °C 8.7 °C 1015.2 hPa ENE 1.4 km/h 3.2 km/h 76% 0.0 mm 0 W/m2
16:42 12.7 °C 8.6 °C 1015.2 hPa NE 1.4 km/h 6.4 km/h 76% 0.0 mm 0 W/m2
16:47 12.7 °C 8.8 °C 1015.2 hPa East 4.7 km/h 6.4 km/h 77% 0.0 mm 0 W/m2
16:52 12.5 °C 8.8 °C 1015.2 hPa NNE 3.2 km/h 6.4 km/h 78% 0.0 mm 0 W/m2
16:57 12.3 °C 8.8 °C 1015.2 hPa East 1.4 km/h 4.8 km/h 79% 0.0 mm 0 W/m2
17:02 12.2 °C 8.9 °C 1015.2 hPa East 1.4 km/h 4.8 km/h 80% 0.0 mm 0 W/m2
17:07 12.1 °C 8.8 °C 1015.2 hPa ENE 1.4 km/h 4.8 km/h 80% 0.0 mm 0 W/m2
17:12 11.9 °C 8.7 °C 1015.2 hPa East 1.4 km/h 6.4 km/h 81% 0.0 mm 0 W/m2
17:17 11.9 °C 8.7 °C 1015.6 hPa ENE 1.4 km/h 6.4 km/h 81% 0.0 mm 0 W/m2
17:22 11.8 °C 8.6 °C 1015.2 hPa East 3.2 km/h 4.8 km/h 81% 0.0 mm 0 W/m2
17:27 11.8 °C 8.8 °C 1015.6 hPa ENE 3.2 km/h 6.4 km/h 82% 0.0 mm 0 W/m2
17:32 11.7 °C 8.7 °C 1015.6 hPa East 1.4 km/h 3.2 km/h 82% 0.0 mm 0 W/m2
17:37 11.7 °C 8.7 °C 1015.6 hPa ENE 1.4 km/h 3.2 km/h 82% 0.0 mm 0 W/m2
17:42 11.7 °C 8.7 °C 1015.6 hPa ENE 4.7 km/h 4.8 km/h 82% 0.0 mm 0 W/m2
17:47 11.7 °C 8.7 °C 1015.6 hPa East 1.4 km/h 3.2 km/h 82% 0.0 mm 0 W/m2
17:52 11.7 °C 8.7 °C 1015.6 hPa ENE 1.4 km/h 4.8 km/h 82% 0.0 mm 0 W/m2
17:57 11.6 °C 8.6 °C 1015.6 hPa ENE 1.4 km/h 3.2 km/h 82% 0.0 mm 0 W/m2
18:02 11.6 °C 8.8 °C 1015.9 hPa East 3.2 km/h 3.2 km/h 83% 0.0 mm 0 W/m2
18:07 11.5 °C 8.9 °C 1015.9 hPa Calm     84% 0.0 mm 0 W/m2
18:12 11.3 °C 8.9 °C 1015.9 hPa East 3.2 km/h 3.2 km/h 85% 0.0 mm 0 W/m2
18:17 11.2 °C 8.8 °C 1016.3 hPa NNE 1.4 km/h 3.2 km/h 85% 0.0 mm 0 W/m2
18:22 11.2 °C 8.9 °C 1016.3 hPa ESE 4.7 km/h 6.4 km/h 86% 0.0 mm 0 W/m2
18:27 11.2 °C 8.9 °C 1016.3 hPa NNW 4.7 km/h 4.8 km/h 86% 0.0 mm 0 W/m2
18:33 11.3 °C 9 °C 1016.3 hPa West 1.4 km/h 1.6 km/h 86% 0.0 mm 0 W/m2
18:38 11.4 °C 9 °C 1016.3 hPa Calm   3.2 km/h 85% 0.0 mm 0 W/m2
18:43 11.4 °C 9.1 °C 1016.3 hPa Calm     86% 0.0 mm 0 W/m2
18:48 11.3 °C 9.2 °C 1016.3 hPa Calm   3.2 km/h 87% 0.0 mm 0 W/m2
18:53 11.1 °C 9 °C 1016.6 hPa WNW 3.2 km/h 4.8 km/h 87% 0.0 mm 0 W/m2
18:58 11.1 °C 9 °C 1016.6 hPa Calm   1.6 km/h 87% 0.0 mm 0 W/m2
19:03 11 °C 9.1 °C 1016.6 hPa WNW 1.4 km/h 4.8 km/h 88% 0.0 mm 0 W/m2
19:08 10.9 °C 9 °C 1016.6 hPa Calm   1.6 km/h 88% 0.0 mm 0 W/m2
19:13 10.8 °C 9.1 °C 1016.6 hPa Calm     89% 0.0 mm 0 W/m2
19:18 10.7 °C 9.1 °C 1016.6 hPa Calm   1.6 km/h 90% 0.2 mm 0 W/m2
19:23 10.6 °C 9 °C 1016.6 hPa SW 3.2 km/h 3.2 km/h 90% 0.2 mm 0 W/m2
19:28 10.6 °C 9.2 °C 1016.6 hPa Calm   1.6 km/h 91% 0.2 mm 0 W/m2
19:33 10.6 °C 9.2 °C 1016.6 hPa Calm     91% 0.2 mm 0 W/m2
19:38 10.6 °C 9.2 °C 1016.6 hPa Calm     91% 0.2 mm 0 W/m2
19:43 10.5 °C 9.1 °C 1016.6 hPa Calm     91% 0.2 mm 0 W/m2
19:48 10.5 °C 9.1 °C 1016.6 hPa Calm     91% 0.2 mm 0 W/m2
19:53 10.4 °C 9.2 °C 1016.6 hPa Calm     92% 0.2 mm 0 W/m2
19:58 10.4 °C 9.2 °C 1016.6 hPa Calm     92% 0.2 mm 0 W/m2
20:03 10.3 °C 9.1 °C 1016.6 hPa North 1.4 km/h 3.2 km/h 92% 0.2 mm 0 W/m2
20:08 10.3 °C 9.1 °C 1016.6 hPa Calm     92% 0.2 mm 0 W/m2
20:13 10.2 °C 9.1 °C 1016.6 hPa Calm   3.2 km/h 93% 0.2 mm 0 W/m2
20:18 10.2 °C 9 °C 1016.6 hPa Calm     92% 0.0 mm 0 W/m2
20:23 10.1 °C 9 °C 1016.6 hPa Calm     93% 0.0 mm 0 W/m2
20:28 10 °C 8.9 °C 1016.9 hPa Calm     93% 0.0 mm 0 W/m2
20:33 9.9 °C 8.8 °C 1016.9 hPa Calm     93% 0.0 mm 0 W/m2
20:38 9.8 °C 8.7 °C 1016.9 hPa Calm     93% 0.0 mm 0 W/m2
20:43 9.8 °C 8.9 °C 1016.9 hPa Calm     94% 0.0 mm 0 W/m2
20:48 9.7 °C 8.8 °C 1016.9 hPa Calm     94% 0.0 mm 0 W/m2
20:53 9.7 °C 8.8 °C 1016.9 hPa Calm     94% 0.0 mm 0 W/m2
20:58 9.6 °C 8.7 °C 1016.9 hPa Calm     94% 0.0 mm 0 W/m2
21:03 9.6 °C 8.7 °C 1016.9 hPa Calm     94% 0.0 mm 0 W/m2
21:08 9.5 °C 8.6 °C 1016.9 hPa Calm     94% 0.0 mm 0 W/m2
21:29 9.3 °C 8.5 °C 1016.9 hPa Calm     95% 0.0 mm 0 W/m2
21:34 9.3 °C 8.5 °C 1016.9 hPa Calm   1.6 km/h 95% 0.0 mm 0 W/m2
21:39 9.3 °C 8.5 °C 1016.9 hPa East 4.7 km/h 6.4 km/h 95% 0.0 mm 0 W/m2
21:44 9.3 °C 8.5 °C 1016.9 hPa ENE 3.2 km/h 4.8 km/h 95% 0.0 mm 0 W/m2
21:49 9.4 °C 8.6 °C 1016.9 hPa ENE 1.4 km/h 3.2 km/h 95% 0.0 mm 0 W/m2
21:54 9.5 °C 8.7 °C 1016.9 hPa Calm     95% 0.0 mm 0 W/m2
21:59 9.4 °C 8.6 °C 1016.9 hPa Calm     95% 0.0 mm 0 W/m2
22:04 9.3 °C 8.5 °C 1016.9 hPa Calm   1.6 km/h 95% 0.0 mm 0 W/m2
22:09 9.3 °C 8.5 °C 1016.9 hPa Calm     95% 0.0 mm 0 W/m2
22:14 9.2 °C 8.4 °C 1016.9 hPa Calm     95% 0.0 mm 0 W/m2
22:19 9.2 °C 8.4 °C 1016.9 hPa Calm     95% 0.0 mm 0 W/m2
22:24 9.1 °C 8.3 °C 1016.9 hPa Calm     95% 0.0 mm 0 W/m2
22:29 9.1 °C 8.3 °C 1016.9 hPa Calm     95% 0.0 mm 0 W/m2
22:34 9 °C 8.2 °C 1016.9 hPa Calm     95% 0.0 mm 0 W/m2
22:39 8.9 °C 8.1 °C 1016.9 hPa Calm     95% 0.0 mm 0 W/m2
22:44 8.9 °C 8.1 °C 1016.9 hPa Calm     95% 0.0 mm 0 W/m2
22:49 8.9 °C 8.1 °C 1016.9 hPa Calm     95% 0.0 mm 0 W/m2
22:54 8.9 °C 8.1 °C 1016.9 hPa Calm     95% 0.0 mm 0 W/m2
22:59 8.8 °C 8 °C 1016.9 hPa Calm     95% 0.0 mm 0 W/m2
23:04 8.8 °C 8 °C 1016.9 hPa Calm     95% 0.0 mm 0 W/m2
23:09 8.8 °C 8.2 °C 1016.9 hPa Calm     96% 0.0 mm 0 W/m2
23:14 8.8 °C 8.2 °C 1016.9 hPa ENE 1.4 km/h 3.2 km/h 96% 0.0 mm 0 W/m2
23:19 8.8 °C 8.2 °C 1016.9 hPa Calm     96% 0.0 mm 0 W/m2
23:24 8.8 °C 8.2 °C 1016.9 hPa Calm   3.2 km/h 96% 0.0 mm 0 W/m2
23:29 8.8 °C 8.2 °C 1016.9 hPa Calm     96% 0.0 mm 0 W/m2
23:34 8.8 °C 8.2 °C 1016.9 hPa Calm     96% 0.0 mm 0 W/m2
23:39 8.8 °C 8.2 °C 1016.9 hPa Calm     96% 0.0 mm 0 W/m2
23:44 8.8 °C 8.2 °C 1016.9 hPa Calm     96% 0.0 mm 0 W/m2
23:49 8.9 °C 8.3 °C 1016.9 hPa ENE 1.4 km/h 3.2 km/h 96% 0.0 mm 0 W/m2
23:54 8.9 °C 8.3 °C 1016.9 hPa Calm     96% 0.0 mm 0 W/m2
Juneau County Weather
Compliments of Weather Underground - 4 mb